sensor_id;sensor_type;location;lat;lon;timestamp;pressure;altitude;pressure_sealevel;temperature;humidity
54936;BME280;40838;50.676;7.838;2023-01-27T00:00:53;98704.91;;;1.12;100.00
54936;BME280;40838;50.676;7.838;2023-01-27T00:03:20;98712.19;;;1.17;100.00
54936;BME280;40838;50.676;7.838;2023-01-27T00:05:50;98706.31;;;1.15;100.00
54936;BME280;40838;50.676;7.838;2023-01-27T00:08:19;98711.41;;;1.61;100.00
54936;BME280;40838;50.676;7.838;2023-01-27T00:10:46;98709.63;;;1.48;100.00
54936;BME280;40838;50.676;7.838;2023-01-27T00:13:34;98710.34;;;1.11;100.00
54936;BME280;40838;50.676;7.838;2023-01-27T00:16:00;98716.47;;;0.71;100.00
54936;BME280;40838;50.676;7.838;2023-01-27T00:18:27;98709.41;;;0.72;100.00
54936;BME280;40838;50.676;7.838;2023-01-27T00:20:56;98716.00;;;1.21;100.00
54936;BME280;40838;50.676;7.838;2023-01-27T00:23:40;98708.38;;;1.64;100.00
54936;BME280;40838;50.676;7.838;2023-01-27T00:26:25;98708.09;;;1.79;100.00
54936;BME280;40838;50.676;7.838;2023-01-27T00:28:53;98704.09;;;1.63;100.00
54936;BME280;40838;50.676;7.838;2023-01-27T00:31:26;98697.91;;;1.58;100.00
54936;BME280;40838;50.676;7.838;2023-01-27T00:34:11;98699.50;;;1.59;100.00
54936;BME280;40838;50.676;7.838;2023-01-27T00:36:39;98700.31;;;1.59;100.00
54936;BME280;40838;50.676;7.838;2023-01-27T00:39:09;98694.53;;;1.82;100.00
54936;BME280;40838;50.676;7.838;2023-01-27T00:41:37;98697.66;;;1.98;100.00
54936;BME280;40838;50.676;7.838;2023-01-27T00:44:06;98694.84;;;1.99;100.00
54936;BME280;40838;50.676;7.838;2023-01-27T00:46:38;98697.06;;;1.95;100.00
54936;BME280;40838;50.676;7.838;2023-01-27T00:49:07;98699.13;;;1.93;100.00
54936;BME280;40838;50.676;7.838;2023-01-27T00:51:35;98703.25;;;1.76;100.00
54936;BME280;40838;50.676;7.838;2023-01-27T00:54:02;98703.69;;;2.05;100.00
54936;BME280;40838;50.676;7.838;2023-01-27T00:56:29;98702.13;;;1.97;100.00
54936;BME280;40838;50.676;7.838;2023-01-27T00:58:58;98692.50;;;1.84;100.00
54936;BME280;40838;50.676;7.838;2023-01-27T01:01:27;98698.03;;;1.69;100.00
54936;BME280;40838;50.676;7.838;2023-01-27T01:03:54;98694.84;;;1.61;100.00
54936;BME280;40838;50.676;7.838;2023-01-27T01:06:23;98709.38;;;2.02;100.00
54936;BME280;40838;50.676;7.838;2023-01-27T01:08:50;98707.97;;;1.99;100.00
54936;BME280;40838;50.676;7.838;2023-01-27T01:11:20;98702.44;;;2.14;100.00
54936;BME280;40838;50.676;7.838;2023-01-27T01:13:53;98706.22;;;2.18;100.00
54936;BME280;40838;50.676;7.838;2023-01-27T01:16:22;98708.72;;;2.06;100.00
54936;BME280;40838;50.676;7.838;2023-01-27T01:18:59;98707.44;;;1.90;100.00
54936;BME280;40838;50.676;7.838;2023-01-27T01:21:26;98709.88;;;1.85;100.00
54936;BME280;40838;50.676;7.838;2023-01-27T01:23:53;98716.44;;;1.69;100.00
54936;BME280;40838;50.676;7.838;2023-01-27T01:26:20;98716.00;;;1.66;100.00
54936;BME280;40838;50.676;7.838;2023-01-27T01:28:49;98714.00;;;1.68;100.00
54936;BME280;40838;50.676;7.838;2023-01-27T01:31:22;98723.59;;;1.42;100.00
54936;BME280;40838;50.676;7.838;2023-01-27T01:33:48;98721.91;;;0.96;100.00
54936;BME280;40838;50.676;7.838;2023-01-27T01:36:19;98719.03;;;1.04;100.00
54936;BME280;40838;50.676;7.838;2023-01-27T01:38:46;98719.38;;;1.28;100.00
54936;BME280;40838;50.676;7.838;2023-01-27T01:41:16;98732.50;;;1.28;100.00
54936;BME280;40838;50.676;7.838;2023-01-27T01:43:43;98729.53;;;1.18;100.00
54936;BME280;40838;50.676;7.838;2023-01-27T01:46:12;98724.50;;;1.68;100.00
54936;BME280;40838;50.676;7.838;2023-01-27T01:48:46;98722.06;;;1.15;100.00
54936;BME280;40838;50.676;7.838;2023-01-27T01:51:19;98728.84;;;1.49;100.00
54936;BME280;40838;50.676;7.838;2023-01-27T01:53:51;98726.94;;;1.63;100.00
54936;BME280;40838;50.676;7.838;2023-01-27T01:56:29;98727.00;;;1.49;100.00
54936;BME280;40838;50.676;7.838;2023-01-27T01:59:02;98721.53;;;1.58;100.00
54936;BME280;40838;50.676;7.838;2023-01-27T02:01:35;98721.56;;;1.44;100.00
54936;BME280;40838;50.676;7.838;2023-01-27T02:04:14;98719.25;;;1.10;100.00
54936;BME280;40838;50.676;7.838;2023-01-27T02:06:49;98719.91;;;0.72;100.00
54936;BME280;40838;50.676;7.838;2023-01-27T02:09:19;98735.72;;;1.37;100.00
54936;BME280;40838;50.676;7.838;2023-01-27T02:11:46;98724.91;;;1.65;100.00
54936;BME280;40838;50.676;7.838;2023-01-27T02:14:15;98729.41;;;1.51;100.00
54936;BME280;40838;50.676;7.838;2023-01-27T02:16:43;98728.06;;;1.35;100.00
54936;BME280;40838;50.676;7.838;2023-01-27T02:19:21;98721.88;;;1.68;100.00
54936;BME280;40838;50.676;7.838;2023-01-27T02:21:53;98722.81;;;1.87;100.00
54936;BME280;40838;50.676;7.838;2023-01-27T02:24:28;98727.69;;;1.77;100.00
54936;BME280;40838;50.676;7.838;2023-01-27T02:27:00;98720.75;;;1.89;100.00
54936;BME280;40838;50.676;7.838;2023-01-27T02:29:27;98724.81;;;1.40;100.00
54936;BME280;40838;50.676;7.838;2023-01-27T02:32:00;98721.59;;;1.83;100.00
54936;BME280;40838;50.676;7.838;2023-01-27T02:34:29;98722.16;;;1.53;100.00
54936;BME280;40838;50.676;7.838;2023-01-27T02:37:02;98722.94;;;1.99;100.00
54936;BME280;40838;50.676;7.838;2023-01-27T02:39:35;98732.19;;;1.63;100.00
54936;BME280;40838;50.676;7.838;2023-01-27T02:42:06;98718.81;;;1.71;100.00
54936;BME280;40838;50.676;7.838;2023-01-27T02:44:35;98724.41;;;1.88;100.00
54936;BME280;40838;50.676;7.838;2023-01-27T02:47:03;98721.69;;;1.63;100.00
54936;BME280;40838;50.676;7.838;2023-01-27T02:49:30;98723.06;;;1.72;100.00
54936;BME280;40838;50.676;7.838;2023-01-27T02:51:57;98719.47;;;1.60;100.00
54936;BME280;40838;50.676;7.838;2023-01-27T02:54:24;98715.59;;;1.69;100.00
54936;BME280;40838;50.676;7.838;2023-01-27T02:57:00;98716.47;;;1.94;100.00
54936;BME280;40838;50.676;7.838;2023-01-27T02:59:31;98721.50;;;2.34;100.00
54936;BME280;40838;50.676;7.838;2023-01-27T03:01:58;98721.69;;;2.08;100.00
54936;BME280;40838;50.676;7.838;2023-01-27T03:04:33;98719.38;;;2.18;100.00
54936;BME280;40838;50.676;7.838;2023-01-27T03:07:03;98730.41;;;1.95;100.00
54936;BME280;40838;50.676;7.838;2023-01-27T03:09:38;98724.22;;;1.83;100.00
54936;BME280;40838;50.676;7.838;2023-01-27T03:12:05;98728.50;;;1.77;100.00
54936;BME280;40838;50.676;7.838;2023-01-27T03:14:50;98727.66;;;1.83;100.00
54936;BME280;40838;50.676;7.838;2023-01-27T03:17:35;98725.22;;;1.88;100.00
54936;BME280;40838;50.676;7.838;2023-01-27T03:20:20;98729.72;;;1.81;100.00
54936;BME280;40838;50.676;7.838;2023-01-27T03:22:47;98729.78;;;1.61;100.00
54936;BME280;40838;50.676;7.838;2023-01-27T03:25:14;98721.38;;;2.23;100.00
54936;BME280;40838;50.676;7.838;2023-01-27T03:27:42;98720.59;;;2.15;100.00
54936;BME280;40838;50.676;7.838;2023-01-27T03:30:31;98724.56;;;2.25;100.00
54936;BME280;40838;50.676;7.838;2023-01-27T03:33:14;98732.19;;;2.08;100.00
54936;BME280;40838;50.676;7.838;2023-01-27T03:36:02;98730.22;;;1.97;100.00
54936;BME280;40838;50.676;7.838;2023-01-27T03:38:49;98728.66;;;2.21;100.00
54936;BME280;40838;50.676;7.838;2023-01-27T03:41:33;98733.38;;;2.12;100.00
54936;BME280;40838;50.676;7.838;2023-01-27T03:44:19;98745.16;;;1.58;100.00
54936;BME280;40838;50.676;7.838;2023-01-27T03:47:05;98740.16;;;1.88;100.00
54936;BME280;40838;50.676;7.838;2023-01-27T03:49:32;98741.97;;;1.94;100.00
54936;BME280;40838;50.676;7.838;2023-01-27T03:51:58;98741.00;;;1.82;100.00
54936;BME280;40838;50.676;7.838;2023-01-27T03:54:25;98747.03;;;1.89;100.00
54936;BME280;40838;50.676;7.838;2023-01-27T03:56:52;98742.91;;;2.06;100.00
54936;BME280;40838;50.676;7.838;2023-01-27T03:59:27;98748.53;;;1.78;100.00
54936;BME280;40838;50.676;7.838;2023-01-27T04:01:55;98736.78;;;1.74;100.00
54936;BME280;40838;50.676;7.838;2023-01-27T04:04:42;98745.91;;;1.71;100.00
54936;BME280;40838;50.676;7.838;2023-01-27T04:10:06;98744.63;;;1.81;100.00
54936;BME280;40838;50.676;7.838;2023-01-27T04:12:32;98747.75;;;1.64;100.00
54936;BME280;40838;50.676;7.838;2023-01-27T04:14:58;98752.72;;;1.27;100.00
54936;BME280;40838;50.676;7.838;2023-01-27T04:17:31;98747.78;;;2.03;100.00
54936;BME280;40838;50.676;7.838;2023-01-27T04:20:05;98737.88;;;2.05;100.00
54936;BME280;40838;50.676;7.838;2023-01-27T04:22:32;98740.22;;;2.13;100.00
54936;BME280;40838;50.676;7.838;2023-01-27T04:24:59;98743.94;;;2.37;100.00
54936;BME280;40838;50.676;7.838;2023-01-27T04:27:26;98749.09;;;2.50;100.00
54936;BME280;40838;50.676;7.838;2023-01-27T04:29:53;98742.72;;;2.33;100.00
54936;BME280;40838;50.676;7.838;2023-01-27T04:32:20;98751.94;;;1.72;100.00
54936;BME280;40838;50.676;7.838;2023-01-27T04:34:46;98748.25;;;1.86;100.00
54936;BME280;40838;50.676;7.838;2023-01-27T04:37:15;98745.63;;;1.93;100.00
54936;BME280;40838;50.676;7.838;2023-01-27T04:39:42;98751.81;;;2.05;100.00
54936;BME280;40838;50.676;7.838;2023-01-27T04:42:10;98748.25;;;1.86;100.00
54936;BME280;40838;50.676;7.838;2023-01-27T04:44:39;98748.09;;;2.13;100.00
54936;BME280;40838;50.676;7.838;2023-01-27T04:47:06;98754.94;;;1.24;100.00
54936;BME280;40838;50.676;7.838;2023-01-27T04:49:35;98759.44;;;1.03;100.00
54936;BME280;40838;50.676;7.838;2023-01-27T04:52:03;98756.38;;;1.13;100.00
54936;BME280;40838;50.676;7.838;2023-01-27T04:54:34;98749.50;;;1.19;100.00
54936;BME280;40838;50.676;7.838;2023-01-27T04:57:01;98757.84;;;1.67;100.00
54936;BME280;40838;50.676;7.838;2023-01-27T04:59:30;98754.88;;;1.50;100.00
54936;BME280;40838;50.676;7.838;2023-01-27T05:01:57;98755.97;;;1.81;100.00
54936;BME280;40838;50.676;7.838;2023-01-27T05:04:24;98758.34;;;1.96;100.00
54936;BME280;40838;50.676;7.838;2023-01-27T05:06:52;98758.25;;;2.09;100.00
54936;BME280;40838;50.676;7.838;2023-01-27T05:09:20;98765.69;;;1.74;100.00
54936;BME280;40838;50.676;7.838;2023-01-27T05:11:49;98765.94;;;2.04;100.00
54936;BME280;40838;50.676;7.838;2023-01-27T05:14:16;98773.41;;;2.14;100.00
54936;BME280;40838;50.676;7.838;2023-01-27T05:16:43;98771.59;;;1.63;100.00
54936;BME280;40838;50.676;7.838;2023-01-27T05:19:10;98774.00;;;1.71;100.00
54936;BME280;40838;50.676;7.838;2023-01-27T05:21:37;98775.09;;;2.02;100.00
54936;BME280;40838;50.676;7.838;2023-01-27T05:24:04;98771.84;;;2.00;100.00
54936;BME280;40838;50.676;7.838;2023-01-27T05:26:31;98781.09;;;2.09;100.00
54936;BME280;40838;50.676;7.838;2023-01-27T05:29:01;98785.16;;;2.05;100.00
54936;BME280;40838;50.676;7.838;2023-01-27T05:31:29;98787.69;;;1.15;100.00
54936;BME280;40838;50.676;7.838;2023-01-27T05:33:59;98780.75;;;1.34;100.00
54936;BME280;40838;50.676;7.838;2023-01-27T05:36:27;98785.25;;;1.85;100.00
54936;BME280;40838;50.676;7.838;2023-01-27T05:38:57;98785.03;;;2.25;100.00
54936;BME280;40838;50.676;7.838;2023-01-27T05:41:27;98796.94;;;1.89;100.00
54936;BME280;40838;50.676;7.838;2023-01-27T05:43:54;98798.97;;;1.93;100.00
54936;BME280;40838;50.676;7.838;2023-01-27T05:46:24;98807.41;;;2.02;100.00
54936;BME280;40838;50.676;7.838;2023-01-27T05:48:54;98804.00;;;1.95;100.00
54936;BME280;40838;50.676;7.838;2023-01-27T05:51:23;98806.06;;;2.31;100.00
54936;BME280;40838;50.676;7.838;2023-01-27T05:53:51;98805.28;;;2.24;100.00
54936;BME280;40838;50.676;7.838;2023-01-27T05:56:18;98817.41;;;1.87;100.00
54936;BME280;40838;50.676;7.838;2023-01-27T05:58:45;98810.44;;;2.06;100.00
54936;BME280;40838;50.676;7.838;2023-01-27T06:01:13;98819.25;;;2.18;100.00
54936;BME280;40838;50.676;7.838;2023-01-27T06:03:43;98820.53;;;2.09;100.00
54936;BME280;40838;50.676;7.838;2023-01-27T06:06:11;98820.63;;;2.27;100.00
54936;BME280;40838;50.676;7.838;2023-01-27T06:08:43;98811.91;;;1.88;100.00
54936;BME280;40838;50.676;7.838;2023-01-27T06:11:11;98832.22;;;1.61;100.00
54936;BME280;40838;50.676;7.838;2023-01-27T06:13:39;98826.22;;;1.92;100.00
54936;BME280;40838;50.676;7.838;2023-01-27T06:16:10;98824.09;;;2.28;100.00
54936;BME280;40838;50.676;7.838;2023-01-27T06:18:37;98828.94;;;2.62;99.78
54936;BME280;40838;50.676;7.838;2023-01-27T06:21:08;98829.34;;;1.76;100.00
54936;BME280;40838;50.676;7.838;2023-01-27T06:23:38;98829.28;;;2.41;100.00
54936;BME280;40838;50.676;7.838;2023-01-27T06:26:06;98831.41;;;2.19;100.00
54936;BME280;40838;50.676;7.838;2023-01-27T06:28:35;98828.47;;;2.40;100.00
54936;BME280;40838;50.676;7.838;2023-01-27T06:31:06;98835.53;;;2.02;100.00
54936;BME280;40838;50.676;7.838;2023-01-27T06:33:33;98836.16;;;1.90;100.00
54936;BME280;40838;50.676;7.838;2023-01-27T06:36:01;98831.00;;;2.15;100.00
54936;BME280;40838;50.676;7.838;2023-01-27T06:38:30;98836.53;;;2.01;100.00
54936;BME280;40838;50.676;7.838;2023-01-27T06:40:57;98843.56;;;2.13;100.00
54936;BME280;40838;50.676;7.838;2023-01-27T06:43:25;98838.88;;;2.15;100.00
54936;BME280;40838;50.676;7.838;2023-01-27T06:46:03;98835.41;;;2.22;100.00
54936;BME280;40838;50.676;7.838;2023-01-27T06:48:39;98837.41;;;2.26;100.00
54936;BME280;40838;50.676;7.838;2023-01-27T06:51:09;98849.81;;;2.19;100.00
54936;BME280;40838;50.676;7.838;2023-01-27T06:53:37;98842.38;;;2.03;100.00
54936;BME280;40838;50.676;7.838;2023-01-27T06:56:05;98847.56;;;2.23;100.00
54936;BME280;40838;50.676;7.838;2023-01-27T06:58:32;98845.47;;;1.93;100.00
54936;BME280;40838;50.676;7.838;2023-01-27T07:00:59;98854.66;;;2.15;100.00
54936;BME280;40838;50.676;7.838;2023-01-27T07:03:27;98853.00;;;2.21;100.00
54936;BME280;40838;50.676;7.838;2023-01-27T07:05:54;98850.50;;;1.94;100.00
54936;BME280;40838;50.676;7.838;2023-01-27T07:08:21;98860.47;;;1.72;100.00
54936;BME280;40838;50.676;7.838;2023-01-27T07:10:49;98845.25;;;1.94;100.00
54936;BME280;40838;50.676;7.838;2023-01-27T07:13:16;98848.50;;;1.90;100.00
54936;BME280;40838;50.676;7.838;2023-01-27T07:15:43;98850.88;;;2.05;100.00
54936;BME280;40838;50.676;7.838;2023-01-27T07:18:11;98850.91;;;1.91;100.00
54936;BME280;40838;50.676;7.838;2023-01-27T07:20:39;98860.97;;;2.08;100.00
54936;BME280;40838;50.676;7.838;2023-01-27T07:23:06;98855.56;;;1.89;100.00
54936;BME280;40838;50.676;7.838;2023-01-27T07:25:38;98866.31;;;1.75;100.00
54936;BME280;40838;50.676;7.838;2023-01-27T07:28:08;98851.72;;;1.99;100.00
54936;BME280;40838;50.676;7.838;2023-01-27T07:30:36;98861.97;;;2.07;100.00
54936;BME280;40838;50.676;7.838;2023-01-27T07:33:08;98856.31;;;2.55;100.00
54936;BME280;40838;50.676;7.838;2023-01-27T07:35:38;98857.78;;;2.44;100.00
54936;BME280;40838;50.676;7.838;2023-01-27T07:38:09;98862.06;;;2.32;100.00
54936;BME280;40838;50.676;7.838;2023-01-27T07:40:36;98859.44;;;1.87;100.00
54936;BME280;40838;50.676;7.838;2023-01-27T07:43:03;98854.69;;;2.09;100.00
54936;BME280;40838;50.676;7.838;2023-01-27T07:45:34;98865.72;;;2.31;100.00
54936;BME280;40838;50.676;7.838;2023-01-27T07:48:10;98866.34;;;1.68;100.00
54936;BME280;40838;50.676;7.838;2023-01-27T07:50:38;98868.41;;;1.53;100.00
54936;BME280;40838;50.676;7.838;2023-01-27T07:53:06;98860.41;;;1.99;100.00
54936;BME280;40838;50.676;7.838;2023-01-27T07:55:33;98873.59;;;1.66;100.00
54936;BME280;40838;50.676;7.838;2023-01-27T07:58:06;98869.06;;;2.00;100.00
54936;BME280;40838;50.676;7.838;2023-01-27T08:00:35;98865.50;;;2.32;100.00
54936;BME280;40838;50.676;7.838;2023-01-27T08:03:02;98868.97;;;2.26;100.00
54936;BME280;40838;50.676;7.838;2023-01-27T08:05:32;98877.97;;;2.50;100.00
54936;BME280;40838;50.676;7.838;2023-01-27T08:08:00;98874.94;;;1.95;100.00
54936;BME280;40838;50.676;7.838;2023-01-27T08:10:29;98884.41;;;2.09;100.00
54936;BME280;40838;50.676;7.838;2023-01-27T08:13:02;98882.25;;;2.45;100.00
54936;BME280;40838;50.676;7.838;2023-01-27T08:15:31;98879.91;;;2.23;100.00
54936;BME280;40838;50.676;7.838;2023-01-27T08:18:00;98882.47;;;2.36;100.00
54936;BME280;40838;50.676;7.838;2023-01-27T08:20:27;98892.44;;;2.21;100.00
54936;BME280;40838;50.676;7.838;2023-01-27T08:22:58;98899.19;;;2.10;100.00
54936;BME280;40838;50.676;7.838;2023-01-27T08:25:25;98899.72;;;2.26;100.00
54936;BME280;40838;50.676;7.838;2023-01-27T08:27:54;98902.91;;;2.34;100.00
54936;BME280;40838;50.676;7.838;2023-01-27T08:30:22;98905.59;;;2.73;100.00
54936;BME280;40838;50.676;7.838;2023-01-27T08:32:51;98906.81;;;2.70;100.00
54936;BME280;40838;50.676;7.838;2023-01-27T08:35:19;98907.09;;;2.55;100.00
54936;BME280;40838;50.676;7.838;2023-01-27T08:37:47;98904.19;;;2.25;100.00
54936;BME280;40838;50.676;7.838;2023-01-27T08:40:14;98913.63;;;0.81;100.00
54936;BME280;40838;50.676;7.838;2023-01-27T08:42:42;98921.38;;;2.14;100.00
54936;BME280;40838;50.676;7.838;2023-01-27T08:45:18;98910.97;;;1.81;100.00
54936;BME280;40838;50.676;7.838;2023-01-27T08:47:51;98918.84;;;1.75;100.00
54936;BME280;40838;50.676;7.838;2023-01-27T08:50:19;98921.88;;;2.50;100.00
54936;BME280;40838;50.676;7.838;2023-01-27T08:52:49;98917.44;;;2.50;100.00
54936;BME280;40838;50.676;7.838;2023-01-27T08:55:16;98928.56;;;2.52;100.00
54936;BME280;40838;50.676;7.838;2023-01-27T08:57:45;98928.75;;;2.89;100.00
54936;BME280;40838;50.676;7.838;2023-01-27T09:00:12;98923.63;;;3.01;100.00
54936;BME280;40838;50.676;7.838;2023-01-27T09:02:40;98920.44;;;2.92;100.00
54936;BME280;40838;50.676;7.838;2023-01-27T09:05:08;98918.38;;;2.69;100.00
54936;BME280;40838;50.676;7.838;2023-01-27T09:07:37;98924.81;;;3.05;100.00
54936;BME280;40838;50.676;7.838;2023-01-27T09:10:05;98928.59;;;3.16;100.00
54936;BME280;40838;50.676;7.838;2023-01-27T09:12:32;98931.47;;;2.76;100.00
54936;BME280;40838;50.676;7.838;2023-01-27T09:14:59;98924.56;;;3.13;100.00
54936;BME280;40838;50.676;7.838;2023-01-27T09:17:28;98939.75;;;2.28;100.00
54936;BME280;40838;50.676;7.838;2023-01-27T09:19:56;98939.03;;;2.59;100.00
54936;BME280;40838;50.676;7.838;2023-01-27T09:22:23;98930.50;;;3.02;100.00
54936;BME280;40838;50.676;7.838;2023-01-27T09:24:52;98931.91;;;3.29;100.00
54936;BME280;40838;50.676;7.838;2023-01-27T09:27:19;98930.13;;;3.23;100.00
54936;BME280;40838;50.676;7.838;2023-01-27T09:29:46;98934.41;;;3.24;100.00
54936;BME280;40838;50.676;7.838;2023-01-27T09:32:14;98926.00;;;3.34;100.00
54936;BME280;40838;50.676;7.838;2023-01-27T09:34:41;98927.34;;;3.43;100.00
54936;BME280;40838;50.676;7.838;2023-01-27T09:37:11;98932.00;;;3.48;99.89
54936;BME280;40838;50.676;7.838;2023-01-27T09:39:42;98933.31;;;3.57;99.66
54936;BME280;40838;50.676;7.838;2023-01-27T09:42:45;98943.75;;;3.45;99.60
54936;BME280;40838;50.676;7.838;2023-01-27T09:45:24;98945.09;;;3.29;100.00
54936;BME280;40838;50.676;7.838;2023-01-27T09:48:04;98945.31;;;3.28;100.00
54936;BME280;40838;50.676;7.838;2023-01-27T09:50:41;98949.28;;;3.37;100.00
54936;BME280;40838;50.676;7.838;2023-01-27T09:53:31;98949.34;;;3.30;100.00
54936;BME280;40838;50.676;7.838;2023-01-27T09:56:07;98948.91;;;3.59;100.00
54936;BME280;40838;50.676;7.838;2023-01-27T09:58:55;98952.09;;;3.42;100.00
54936;BME280;40838;50.676;7.838;2023-01-27T10:01:43;98954.84;;;3.54;100.00
54936;BME280;40838;50.676;7.838;2023-01-27T10:07:27;98966.38;;;3.53;99.97
54936;BME280;40838;50.676;7.838;2023-01-27T10:10:10;98964.56;;;3.53;100.00
54936;BME280;40838;50.676;7.838;2023-01-27T10:12:53;98960.09;;;3.54;99.63
54936;BME280;40838;50.676;7.838;2023-01-27T10:15:38;98967.44;;;3.70;98.62
54936;BME280;40838;50.676;7.838;2023-01-27T10:18:21;98972.38;;;3.85;98.40
54936;BME280;40838;50.676;7.838;2023-01-27T10:20:59;98977.00;;;3.90;98.40
54936;BME280;40838;50.676;7.838;2023-01-27T10:23:38;98969.75;;;3.85;98.54
54936;BME280;40838;50.676;7.838;2023-01-27T10:26:19;98973.31;;;4.16;97.00
54936;BME280;40838;50.676;7.838;2023-01-27T10:28:50;98965.75;;;4.01;97.90
54936;BME280;40838;50.676;7.838;2023-01-27T10:31:25;98964.06;;;4.25;96.29
54936;BME280;40838;50.676;7.838;2023-01-27T10:33:53;98968.47;;;4.13;97.06
54936;BME280;40838;50.676;7.838;2023-01-27T10:36:26;98965.84;;;4.13;96.32
54936;BME280;40838;50.676;7.838;2023-01-27T10:39:04;98973.81;;;4.25;96.72
54936;BME280;40838;50.676;7.838;2023-01-27T10:41:42;98973.59;;;4.08;97.50
54936;BME280;40838;50.676;7.838;2023-01-27T10:44:24;98984.94;;;4.08;97.91
54936;BME280;40838;50.676;7.838;2023-01-27T10:47:18;98986.41;;;4.22;96.99
54936;BME280;40838;50.676;7.838;2023-01-27T10:49:50;98981.63;;;4.56;95.96
54936;BME280;40838;50.676;7.838;2023-01-27T10:52:24;98980.72;;;4.44;96.17
54936;BME280;40838;50.676;7.838;2023-01-27T10:54:56;98978.22;;;4.49;95.99
54936;BME280;40838;50.676;7.838;2023-01-27T10:57:29;98975.69;;;3.81;100.00
54936;BME280;40838;50.676;7.838;2023-01-27T11:00:02;98973.66;;;4.75;96.36
54936;BME280;40838;50.676;7.838;2023-01-27T11:02:37;98977.81;;;5.66;91.63
54936;BME280;40838;50.676;7.838;2023-01-27T11:05:08;98971.34;;;5.39;91.50
54936;BME280;40838;50.676;7.838;2023-01-27T11:07:43;98982.88;;;5.68;91.12
54936;BME280;40838;50.676;7.838;2023-01-27T11:10:16;98980.78;;;3.75;98.85
54936;BME280;40838;50.676;7.838;2023-01-27T11:12:47;98983.59;;;3.30;100.00
54936;BME280;40838;50.676;7.838;2023-01-27T11:15:22;98985.09;;;3.70;100.00
54936;BME280;40838;50.676;7.838;2023-01-27T11:17:56;98985.06;;;4.87;96.80
54936;BME280;40838;50.676;7.838;2023-01-27T11:20:28;98978.00;;;4.99;93.83
54936;BME280;40838;50.676;7.838;2023-01-27T11:22:59;98976.16;;;3.71;99.72
54936;BME280;40838;50.676;7.838;2023-01-27T11:25:35;98976.97;;;3.46;100.00
54936;BME280;40838;50.676;7.838;2023-01-27T11:28:20;98971.06;;;3.51;100.00
54936;BME280;40838;50.676;7.838;2023-01-27T11:30:53;98970.84;;;2.89;100.00
54936;BME280;40838;50.676;7.838;2023-01-27T11:33:29;98967.91;;;4.29;100.00
54936;BME280;40838;50.676;7.838;2023-01-27T11:36:03;98969.19;;;3.01;100.00
54936;BME280;40838;50.676;7.838;2023-01-27T11:38:33;98961.56;;;3.18;100.00
54936;BME280;40838;50.676;7.838;2023-01-27T11:41:00;98973.84;;;2.99;100.00
54936;BME280;40838;50.676;7.838;2023-01-27T11:43:28;98969.53;;;1.95;100.00
54936;BME280;40838;50.676;7.838;2023-01-27T11:45:59;98962.97;;;4.14;100.00
54936;BME280;40838;50.676;7.838;2023-01-27T11:48:44;98965.63;;;4.51;98.96
54936;BME280;40838;50.676;7.838;2023-01-27T11:51:17;98960.69;;;3.99;100.00
54936;BME280;40838;50.676;7.838;2023-01-27T11:53:48;98960.53;;;3.94;100.00
54936;BME280;40838;50.676;7.838;2023-01-27T11:56:19;98954.41;;;4.01;100.00
54936;BME280;40838;50.676;7.838;2023-01-27T11:58:52;98949.84;;;4.26;100.00
54936;BME280;40838;50.676;7.838;2023-01-27T12:01:25;98943.03;;;4.74;99.76
54936;BME280;40838;50.676;7.838;2023-01-27T12:04:00;98941.28;;;4.49;100.00
54936;BME280;40838;50.676;7.838;2023-01-27T12:06:34;98940.91;;;4.64;98.31
54936;BME280;40838;50.676;7.838;2023-01-27T12:09:04;98938.00;;;4.54;100.00
54936;BME280;40838;50.676;7.838;2023-01-27T12:11:31;98931.47;;;4.86;98.05
54936;BME280;40838;50.676;7.838;2023-01-27T12:14:00;98936.03;;;5.09;97.35
54936;BME280;40838;50.676;7.838;2023-01-27T12:16:41;98930.09;;;5.61;94.42
54936;BME280;40838;50.676;7.838;2023-01-27T12:19:21;98926.19;;;4.56;96.20
54936;BME280;40838;50.676;7.838;2023-01-27T12:21:51;98920.72;;;5.00;95.97
54936;BME280;40838;50.676;7.838;2023-01-27T12:24:23;98921.53;;;5.00;96.66
54936;BME280;40838;50.676;7.838;2023-01-27T12:26:53;98920.13;;;4.86;95.08
54936;BME280;40838;50.676;7.838;2023-01-27T12:29:27;98912.72;;;5.06;96.41
54936;BME280;40838;50.676;7.838;2023-01-27T12:31:59;98917.63;;;4.91;96.45
54936;BME280;40838;50.676;7.838;2023-01-27T12:34:31;98926.97;;;5.29;94.47
54936;BME280;40838;50.676;7.838;2023-01-27T12:36:59;98928.13;;;5.21;92.99
54936;BME280;40838;50.676;7.838;2023-01-27T12:39:40;98924.69;;;5.21;93.87
54936;BME280;40838;50.676;7.838;2023-01-27T12:42:41;98920.41;;;5.20;92.67
54936;BME280;40838;50.676;7.838;2023-01-27T12:45:23;98923.75;;;5.15;94.15
54936;BME280;40838;50.676;7.838;2023-01-27T12:47:59;98909.03;;;5.19;94.79
54936;BME280;40838;50.676;7.838;2023-01-27T12:50:31;98912.50;;;5.31;93.89
54936;BME280;40838;50.676;7.838;2023-01-27T12:53:10;98907.13;;;5.38;93.70
54936;BME280;40838;50.676;7.838;2023-01-27T12:55:39;98912.41;;;5.26;94.14
54936;BME280;40838;50.676;7.838;2023-01-27T12:58:28;98910.25;;;4.93;95.60
54936;BME280;40838;50.676;7.838;2023-01-27T13:00:58;98911.28;;;4.32;97.86
54936;BME280;40838;50.676;7.838;2023-01-27T13:03:27;98906.28;;;4.72;96.79
54936;BME280;40838;50.676;7.838;2023-01-27T13:05:59;98911.66;;;5.07;95.22
54936;BME280;40838;50.676;7.838;2023-01-27T13:08:30;98920.31;;;5.15;95.78
54936;BME280;40838;50.676;7.838;2023-01-27T13:10:59;98922.84;;;4.31;98.48
54936;BME280;40838;50.676;7.838;2023-01-27T13:13:32;98920.25;;;4.06;100.00
54936;BME280;40838;50.676;7.838;2023-01-27T13:16:04;98917.00;;;4.29;98.48
54936;BME280;40838;50.676;7.838;2023-01-27T13:18:34;98928.41;;;4.22;99.87
54936;BME280;40838;50.676;7.838;2023-01-27T13:21:12;98916.09;;;4.53;98.66
54936;BME280;40838;50.676;7.838;2023-01-27T13:23:41;98909.88;;;3.74;100.00
54936;BME280;40838;50.676;7.838;2023-01-27T13:26:16;98916.34;;;4.33;99.49
54936;BME280;40838;50.676;7.838;2023-01-27T13:28:52;98912.78;;;4.58;97.85
54936;BME280;40838;50.676;7.838;2023-01-27T13:31:32;98921.50;;;4.03;100.00